BWE weather

Braunschweig-Wolfsburg Airport
Braunschweig, Lower Saxony, Germany

Public forecast

Using degrees Celsius for public forecast. Weather courtesy of forecast.io.

METAR (pilot weather report)

Retrieved 2019/07/17 06:20 UTC (44 seconds ago):

EDVE 170620Z 35005KT 320V050 9999 FEW013 BKN026 15/11 Q1015

TAF (pilot weather forecast)

Forecast is more than 12 hours old.

Closest forecast is Celle Airport, 25.5 nm (47.2 km) NW. Retrieved 2010/03/08 05:23 UTC (9 years ago):

TAF ETHC 080523Z 0806/0818 VRB02KT 7000 NSW BKN007 TEMPO 0806/0808 23003KT 4000 -SN BKN005 OVC010 BECMG 0808/0811 08005KT 9999 NSW SCT010 BKN020